Time;durP1;ratioP1;P1;durP2;ratioP2;P2;SDS_P1;SDS_P2;PMS_P1;PMS_P2;Temp;Humidity;BMP_temperature;BMP_pressure;BME280_temperature;BME280_humidity;BME280_pressure;Samples;Min_cycle;Max_cycle;Signal;HPM_P1;HPM_P2
2022/11/12 00:01:11;;;;;;;;;;;;;;;20.41;48.30;102777.09;5128633;27;19928;-39
2022/11/12 00:03:37;;;;;;;;;;;;;;;20.43;48.20;102782.41;5126091;27;20326;-38
2022/11/12 00:06:02;;;;;;;;;;;;;;;20.41;47.38;102777.09;5132482;27;19931;-39
2022/11/12 00:08:28;;;;;;;;;;;;;;;20.42;48.31;102780.69;5127916;27;20390;-37
2022/11/12 00:10:54;;;;;;;;;;;;;;;20.41;47.13;102779.03;5123609;27;19961;-38
2022/11/12 00:13:19;;;;;;;;;;;;;;;20.41;48.14;102782.63;5132943;27;19977;-39
2022/11/12 00:15:45;;;;;;;;;;;;;;;20.41;48.03;102774.31;5133842;27;19938;-39
2022/11/12 00:18:11;;;;;;;;;;;;;;;20.41;48.12;102771.56;5110329;27;20039;-38
2022/11/12 00:20:36;;;;;;;;;;;;;;;20.40;47.36;102769.88;5131491;27;19934;-39
2022/11/12 00:23:02;;;;;;;;;;;;;;;20.41;47.71;102770.72;5133510;27;19946;-39
2022/11/12 00:25:28;;;;;;;;;;;;;;;20.40;48.28;102772.66;5131350;27;19927;-37
2022/11/12 00:27:53;;;;;;;;;;;;;;;20.41;48.31;102776.25;5117364;28;19935;-38
2022/11/12 00:30:19;;;;;;;;;;;;;;;20.41;48.38;102774.31;5129984;27;19924;-38
2022/11/12 00:32:44;;;;;;;;;;;;;;;20.42;48.23;102781.56;5122778;27;19923;-39
2022/11/12 00:35:11;;;;;;;;;;;;;;;20.40;48.23;102778.19;5133885;27;20372;-38
2022/11/12 00:37:39;;;;;;;;;;;;;;;20.41;48.29;102776.25;5130645;27;20352;-38
2022/11/12 00:40:05;;;;;;;;;;;;;;;20.41;48.28;102779.03;5104334;28;20375;-38
2022/11/12 00:42:30;;;;;;;;;;;;;;;20.41;48.15;102776.25;5127159;27;19931;-39
2022/11/12 00:44:56;;;;;;;;;;;;;;;20.41;48.25;102785.38;5126740;27;19924;-40
2022/11/12 00:47:21;;;;;;;;;;;;;;;20.40;48.36;102780.94;5123969;27;20360;-38
2022/11/12 00:49:47;;;;;;;;;;;;;;;20.41;48.19;102782.63;5126210;27;19927;-38
2022/11/12 00:52:13;;;;;;;;;;;;;;;20.41;48.30;102784.56;5131092;27;19923;-38
2022/11/12 00:54:38;;;;;;;;;;;;;;;20.41;48.03;102784.56;5123861;27;19942;-39
2022/11/12 00:57:04;;;;;;;;;;;;;;;20.41;48.05;102788.16;5127152;27;19923;-39
2022/11/12 00:59:29;;;;;;;;;;;;;;;20.40;48.26;102793.94;5127929;27;20318;-37
2022/11/12 01:01:55;;;;;;;;;;;;;;;20.40;48.22;102794.78;5120766;27;20040;-39
2022/11/12 01:04:20;;;;;;;;;;;;;;;20.40;48.31;102793.94;5129860;27;19923;-40
2022/11/12 01:06:46;;;;;;;;;;;;;;;20.40;48.15;102794.78;5140436;27;20289;-40
2022/11/12 01:09:11;;;;;;;;;;;;;;;20.39;47.36;102789.50;5128656;27;19935;-38
2022/11/12 01:11:39;;;;;;;;;;;;;;;20.40;48.13;102785.66;5127249;27;20314;-38
2022/11/12 01:14:05;;;;;;;;;;;;;;;20.39;48.21;102801.41;5110832;27;19958;-39
2022/11/12 01:16:33;;;;;;;;;;;;;;;20.40;48.37;102793.94;5114552;27;19995;-40
2022/11/12 01:19:00;;;;;;;;;;;;;;;20.40;48.16;102794.78;5124624;27;19963;-38
2022/11/12 01:21:26;;;;;;;;;;;;;;;20.39;48.38;102798.66;5131333;27;19924;-39
2022/11/12 01:23:52;;;;;;;;;;;;;;;20.40;48.34;102799.47;5111785;27;20375;-37
2022/11/12 01:26:18;;;;;;;;;;;;;;;20.40;48.12;102797.56;5127231;27;19923;-38
2022/11/12 01:28:44;;;;;;;;;;;;;;;20.39;48.30;102792.28;5129639;27;20282;-38
2022/11/12 01:31:13;;;;;;;;;;;;;;;20.39;48.31;102793.09;5115091;27;20613;-38
2022/11/12 01:33:39;;;;;;;;;;;;;;;20.40;48.28;102788.41;5126401;27;20057;-39
2022/11/12 01:36:05;;;;;;;;;;;;;;;20.39;48.27;102793.09;5107238;27;20061;-39
2022/11/12 01:38:38;;;;;;;;;;;;;;;20.38;47.26;102782.25;5120234;27;20344;-38
2022/11/12 01:41:04;;;;;;;;;;;;;;;20.39;48.24;102773.75;5127066;27;19981;-37
2022/11/12 01:43:29;;;;;;;;;;;;;;;20.39;48.26;102775.66;5124280;27;20327;-39
2022/11/12 01:45:55;;;;;;;;;;;;;;;20.38;48.22;102776.72;5128993;27;19931;-39
2022/11/12 01:48:25;;;;;;;;;;;;;;;20.39;48.20;102773.75;5134801;27;19958;-37
2022/11/12 01:50:51;;;;;;;;;;;;;;;20.38;48.01;102777.59;5110670;27;19931;-39
2022/11/12 01:53:16;;;;;;;;;;;;;;;20.38;48.33;102774.84;5129350;27;19978;-39
2022/11/12 01:55:42;;;;;;;;;;;;;;;20.39;48.23;102779.28;5132491;27;20389;-39
2022/11/12 01:58:09;;;;;;;;;;;;;;;20.39;48.06;102775.66;5132065;27;19935;-39
2022/11/12 02:00:35;;;;;;;;;;;;;;;20.39;48.27;102770.13;5102777;28;19963;-39
2022/11/12 02:03:01;;;;;;;;;;;;;;;20.39;48.49;102772.91;5129950;27;19930;-40
2022/11/12 02:05:27;;;;;;;;;;;;;;;20.38;48.30;102772.06;5130643;27;20347;-39
2022/11/12 02:07:52;;;;;;;;;;;;;;;20.38;48.01;102773.97;5138571;27;19950;-39
2022/11/12 02:10:18;;;;;;;;;;;;;;;20.39;48.29;102770.13;5123695;27;19928;-39
2022/11/12 02:15:29;;;;;;;;;;;;;;;20.38;48.27;102765.66;5114333;27;19955;-39
2022/11/12 02:17:55;;;;;;;;;;;;;;;20.37;48.09;102764.81;5121678;27;19944;-39
2022/11/12 02:20:21;;;;;;;;;;;;;;;20.38;48.26;102765.66;5123069;27;19981;-38
2022/11/12 02:22:46;;;;;;;;;;;;;;;20.38;48.52;102769.31;5119236;27;19931;-38
2022/11/12 02:25:13;;;;;;;;;;;;;;;20.38;48.30;102769.31;5124008;27;20029;-37
2022/11/12 02:27:38;;;;;;;;;;;;;;;20.38;48.24;102776.72;5107628;27;20007;-39
2022/11/12 02:30:04;;;;;;;;;;;;;;;20.37;48.26;102773.13;5123294;27;20286;-39
2022/11/12 02:32:30;;;;;;;;;;;;;;;20.38;48.46;102776.72;5122394;27;20018;-39
2022/11/12 02:34:55;;;;;;;;;;;;;;;20.38;48.13;102777.59;5123449;27;19924;-38
2022/11/12 02:37:21;;;;;;;;;;;;;;;20.38;48.29;102785.03;5126592;27;19923;-39
2022/11/12 02:39:46;;;;;;;;;;;;;;;20.38;48.25;102780.38;5130272;27;19967;-38
2022/11/12 02:42:12;;;;;;;;;;;;;;;20.38;48.23;102782.25;5124370;27;19985;-38
2022/11/12 02:44:38;;;;;;;;;;;;;;;20.37;48.31;102777.81;5126294;27;20336;-38
2022/11/12 02:47:03;;;;;;;;;;;;;;;20.38;48.35;102780.38;5124270;27;19923;-39
2022/11/12 02:49:29;;;;;;;;;;;;;;;20.37;48.11;102775.91;5124693;27;20023;-39
2022/11/12 02:51:54;;;;;;;;;;;;;;;20.38;48.32;102782.25;5125725;27;20324;-38
2022/11/12 02:54:20;;;;;;;;;;;;;;;20.38;48.22;102788.66;5121887;27;19931;-37
2022/11/12 02:56:45;;;;;;;;;;;;;;;20.38;48.31;102788.66;5131625;27;19924;-38
2022/11/12 02:59:11;;;;;;;;;;;;;;;20.38;48.33;102782.25;5124460;27;20271;-38
2022/11/12 03:01:36;;;;;;;;;;;;;;;20.37;48.25;102784.19;5129066;27;19937;-38
2022/11/12 03:04:02;;;;;;;;;;;;;;;20.37;47.94;102775.06;5130005;27;19923;-39
2022/11/12 03:06:27;;;;;;;;;;;;;;;20.38;48.34;102776.72;5129031;27;21014;-38
2022/11/12 03:08:53;;;;;;;;;;;;;;;20.37;48.24;102780.59;5136234;27;19923;-39
2022/11/12 03:11:19;;;;;;;;;;;;;;;20.36;48.33;102773.38;5129088;27;20514;-39
2022/11/12 03:13:44;;;;;;;;;;;;;;;20.37;48.08;102770.34;5118186;27;19935;-39
2022/11/12 03:16:10;;;;;;;;;;;;;;;20.37;47.88;102772.28;5125203;27;19930;-39
2022/11/12 03:18:36;;;;;;;;;;;;;;;20.37;48.34;102769.53;5125208;27;20387;-39
2022/11/12 03:21:02;;;;;;;;;;;;;;;20.37;47.81;102767.59;5126113;27;20034;-39
2022/11/12 03:23:28;;;;;;;;;;;;;;;20.37;48.42;102772.28;5131871;27;19939;-38
2022/11/12 03:25:53;;;;;;;;;;;;;;;20.36;48.32;102771.44;5124781;27;19930;-39
2022/11/12 03:28:19;;;;;;;;;;;;;;;20.37;48.16;102764.00;5124202;27;19938;-39
2022/11/12 03:30:44;;;;;;;;;;;;;;;20.36;48.19;102765.91;5122135;27;19930;-38
2022/11/12 03:33:10;;;;;;;;;;;;;;;20.36;48.17;102771.44;5128286;27;20286;-38
2022/11/12 03:35:36;;;;;;;;;;;;;;;20.36;48.11;102762.31;5137027;27;20074;-39
2022/11/12 03:38:02;;;;;;;;;;;;;;;20.36;48.25;102757.63;5113504;27;20226;-39
2022/11/12 03:40:27;;;;;;;;;;;;;;;20.36;48.20;102759.53;5117510;27;19968;-38
2022/11/12 03:42:53;;;;;;;;;;;;;;;20.36;48.06;102757.63;5107230;27;19996;-39
2022/11/12 03:45:19;;;;;;;;;;;;;;;20.36;48.12;102759.53;5135470;27;19967;-38
2022/11/12 03:47:45;;;;;;;;;;;;;;;20.36;48.10;102763.16;5132350;27;20758;-38
2022/11/12 03:50:11;;;;;;;;;;;;;;;20.37;48.28;102755.69;5108346;27;20407;-38
2022/11/12 03:52:37;;;;;;;;;;;;;;;20.36;48.31;102757.63;5131090;27;19923;-38
2022/11/12 03:55:03;;;;;;;;;;;;;;;20.36;48.37;102751.25;5134474;27;19923;-39
2022/11/12 03:57:29;;;;;;;;;;;;;;;20.36;48.25;102746.56;5131440;27;19976;-38
2022/11/12 03:59:55;;;;;;;;;;;;;;;20.36;48.17;102752.09;5133063;27;19939;-39
2022/11/12 04:02:20;;;;;;;;;;;;;;;20.36;48.29;102752.09;5129349;27;19924;-39
2022/11/12 04:10:17;;;;;;;;;;;;;;;20.36;48.18;102741.00;5118617;27;20163;-38
2022/11/12 04:15:28;;;;;;;;;;;;;;;20.36;48.28;102737.41;5110306;27;20290;-38
2022/11/12 04:23:24;;;;;;;;;;;;;;;20.36;48.28;102732.72;5121639;27;19962;-38
2022/11/12 04:28:35;;;;;;;;;;;;;;;20.36;48.18;102726.34;5122715;27;20149;-38
2022/11/12 04:31:01;;;;;;;;;;;;;;;20.36;48.25;102729.09;5124451;27;19924;-38
2022/11/12 04:33:26;;;;;;;;;;;;;;;20.36;48.28;102726.34;5132599;27;19930;-39
2022/11/12 04:35:52;;;;;;;;;;;;;;;20.35;48.17;102727.44;5128664;27;19923;-40
2022/11/12 04:38:17;;;;;;;;;;;;;;;20.35;48.30;102724.66;5130522;27;19988;-39
2022/11/12 04:46:14;;;;;;;;;;;;;;;20.34;48.02;102718.28;5112337;27;20422;-39
2022/11/12 04:48:39;;;;;;;;;;;;;;;20.35;48.26;102719.13;5129279;27;19930;-40
2022/11/12 04:52:03;;;;;;;;;;;;;;;20.35;48.24;102717.19;5133025;27;19924;-38
2022/11/12 04:53:51;;;;;;;;;;;;;;;20.35;48.28;102716.38;5115303;27;19966;-39
2022/11/12 04:56:16;;;;;;;;;;;;;;;20.34;48.16;102717.47;5132228;27;19969;-39
2022/11/12 04:58:42;;;;;;;;;;;;;;;20.35;48.29;102719.13;5120740;27;20367;-39
2022/11/12 05:01:07;;;;;;;;;;;;;;;20.34;48.26;102714.69;5130047;27;19924;-39
2022/11/12 05:03:33;;;;;;;;;;;;;;;20.34;48.04;102711.94;5130260;27;19995;-38
2022/11/12 05:06:02;;;;;;;;;;;;;;;20.34;48.21;102711.94;5130272;27;20283;-39
2022/11/12 05:08:28;;;;;;;;;;;;;;;20.34;48.21;102706.38;5133065;27;19976;-39
2022/11/12 05:10:54;;;;;;;;;;;;;;;20.33;48.33;102702.75;5135461;27;19923;-39
2022/11/12 05:13:19;;;;;;;;;;;;;;;20.34;48.33;102700.84;5133968;27;20414;-39
2022/11/12 05:15:45;;;;;;;;;;;;;;;20.33;48.11;102700.00;5130434;27;19927;-39
2022/11/12 05:18:10;;;;;;;;;;;;;;;20.33;48.23;102691.69;5129082;27;19927;-39
2022/11/12 05:20:36;;;;;;;;;;;;;;;20.33;48.23;102694.47;5126110;27;20340;-38
2022/11/12 05:23:02;;;;;;;;;;;;;;;20.33;48.27;102683.38;5122966;27;19924;-39
2022/11/12 05:25:33;;;;;;;;;;;;;;;20.34;48.30;102687.03;5111201;27;19927;-38
2022/11/12 05:27:59;;;;;;;;;;;;;;;20.33;48.29;102688.94;5108275;27;20369;-38
2022/11/12 05:30:25;;;;;;;;;;;;;;;20.34;48.21;102679.56;5131204;27;20355;-39
2022/11/12 05:32:50;;;;;;;;;;;;;;;20.34;48.30;102678.72;5122089;27;19924;-38
2022/11/12 05:35:16;;;;;;;;;;;;;;;20.33;48.08;102679.78;5128331;27;20283;-38
2022/11/12 05:37:42;;;;;;;;;;;;;;;20.32;47.44;102678.94;5129847;27;19931;-40
2022/11/12 05:40:08;;;;;;;;;;;;;;;20.33;48.21;102677.03;5124231;27;20393;-39
2022/11/12 05:42:33;;;;;;;;;;;;;;;20.33;48.20;102674.25;5124934;27;20424;-38
2022/11/12 05:44:59;;;;;;;;;;;;;;;20.34;48.11;102678.72;5134694;27;19930;-38
2022/11/12 05:47:24;;;;;;;;;;;;;;;20.32;47.78;102683.66;5124832;27;19928;-39
2022/11/12 05:49:50;;;;;;;;;;;;;;;20.32;47.33;102681.72;5125729;27;20387;-39
2022/11/12 05:52:15;;;;;;;;;;;;;;;20.33;47.85;102680.63;5133634;27;19923;-38
2022/11/12 05:54:41;;;;;;;;;;;;;;;20.33;48.22;102682.56;5125057;27;19976;-39
2022/11/12 05:57:07;;;;;;;;;;;;;;;20.34;48.26;102684.25;5132961;27;19930;-39
2022/11/12 05:59:32;;;;;;;;;;;;;;;20.32;47.36;102684.47;5135049;27;20061;-39
2022/11/12 06:01:58;;;;;;;;;;;;;;;20.33;47.97;102680.63;5133271;27;20345;-39
2022/11/12 06:04:25;;;;;;;;;;;;;;;20.33;48.03;102688.09;5130902;27;19923;-39
2022/11/12 06:06:50;;;;;;;;;;;;;;;20.32;48.23;102690.00;5139500;27;20366;-39
2022/11/12 06:09:16;;;;;;;;;;;;;;;20.33;48.11;102685.31;5130167;27;19923;-38
2022/11/12 06:11:41;;;;;;;;;;;;;;;20.33;48.22;102690.84;5123082;27;19923;-39
2022/11/12 06:14:07;;;;;;;;;;;;;;;20.32;47.58;102687.25;5127695;27;20335;-40
2022/11/12 06:16:32;;;;;;;;;;;;;;;20.33;48.25;102691.69;5125326;27;19927;-37
2022/11/12 06:18:58;;;;;;;;;;;;;;;20.33;48.27;102696.38;5122238;27;19927;-39
2022/11/12 06:21:26;;;;;;;;;;;;;;;20.32;48.03;102694.72;5128152;27;19924;-39
2022/11/12 06:23:52;;;;;;;;;;;;;;;20.33;47.32;102701.91;5130363;27;19998;-39
2022/11/12 06:26:18;;;;;;;;;;;;;;;20.33;48.11;102699.16;5131869;27;19931;-39
2022/11/12 06:28:44;;;;;;;;;;;;;;;20.32;47.79;102703.00;5128472;27;19931;-37
2022/11/12 06:31:10;;;;;;;;;;;;;;;20.33;47.97;102701.91;5118476;27;19931;-39
2022/11/12 06:33:35;;;;;;;;;;;;;;;20.33;48.15;102696.38;5124903;27;19927;-39
2022/11/12 06:36:02;;;;;;;;;;;;;;;20.32;47.93;102706.63;5127281;27;19924;-38
2022/11/12 06:38:29;;;;;;;;;;;;;;;20.32;47.94;102705.78;5124654;27;20011;-38
2022/11/12 06:40:54;;;;;;;;;;;;;;;20.32;48.04;102708.56;5125869;27;19931;-37
2022/11/12 06:43:20;;;;;;;;;;;;;;;20.32;48.05;102711.31;5117552;27;19923;-39
2022/11/12 06:45:45;;;;;;;;;;;;;;;20.32;47.98;102714.91;5129173;27;19976;-39
2022/11/12 06:48:11;;;;;;;;;;;;;;;20.32;48.22;102720.44;5119512;27;19923;-40
2022/11/12 06:50:37;;;;;;;;;;;;;;;20.31;48.23;102732.63;5135090;27;19935;-39
2022/11/12 06:53:02;;;;;;;;;;;;;;;20.33;48.26;102732.34;5126325;27;19931;-39
2022/11/12 06:55:28;;;;;;;;;;;;;;;20.31;47.96;102735.38;5128948;27;19924;-38
2022/11/12 06:57:53;;;;;;;;;;;;;;;20.30;47.89;102744.78;5136844;27;19969;-38
2022/11/12 07:00:19;;;;;;;;;;;;;;;20.30;48.03;102745.59;5128498;27;19935;-39
2022/11/12 07:02:45;;;;;;;;;;;;;;;20.31;48.20;102732.63;5128873;27;19930;-39
2022/11/12 07:05:10;;;;;;;;;;;;;;;20.31;48.24;102743.69;5130742;27;19931;-38
2022/11/12 07:07:36;;;;;;;;;;;;;;;20.32;47.98;102747.28;5134865;27;19923;-39
2022/11/12 07:10:01;;;;;;;;;;;;;;;20.29;48.05;102752.25;5128617;27;20318;-39
2022/11/12 07:12:27;;;;;;;;;;;;;;;20.31;47.96;102754.75;5138600;27;19929;-39
2022/11/12 07:14:53;;;;;;;;;;;;;;;20.29;47.14;102760.53;5134048;27;20394;-38
2022/11/12 07:17:18;;;;;;;;;;;;;;;20.30;47.98;102756.69;5125736;27;21239;-39
2022/11/12 07:19:44;;;;;;;;;;;;;;;20.32;47.36;102761.13;5131248;27;19942;-38
2022/11/12 07:22:09;;;;;;;;;;;;;;;20.30;47.90;102767.75;5132148;27;19924;-38
2022/11/12 07:24:35;;;;;;;;;;;;;;;20.30;48.10;102762.22;5132540;27;19938;-38
2022/11/12 07:27:00;;;;;;;;;;;;;;;20.30;48.26;102755.84;5136850;27;19930;-39
2022/11/12 07:29:26;;;;;;;;;;;;;;;20.30;47.89;102753.91;5125846;27;19924;-39
2022/11/12 07:32:11;;;;;;;;;;;;;;;20.30;48.16;102745.59;5112901;27;20340;-38
2022/11/12 07:34:37;;;;;;;;;;;;;;;20.30;47.99;102747.53;5130548;27;19931;-40
2022/11/12 07:37:02;;;;;;;;;;;;;;;20.29;47.26;102755.00;5130047;27;19935;-39
2022/11/12 07:39:28;;;;;;;;;;;;;;;20.29;47.73;102755.00;5135625;27;19988;-38
2022/11/12 07:41:54;;;;;;;;;;;;;;;20.30;48.25;102750.31;5134297;27;20294;-37
2022/11/12 07:44:19;;;;;;;;;;;;;;;20.30;48.06;102750.31;5124203;27;19939;-38
2022/11/12 07:46:45;;;;;;;;;;;;;;;20.29;47.89;102745.84;5131629;27;19931;-38
2022/11/12 07:49:10;;;;;;;;;;;;;;;20.29;48.04;102749.47;5131978;27;19923;-37
2022/11/12 07:55:05;;;;;;;;;;;;;;;20.29;48.25;102732.88;5130475;27;19972;-37
2022/11/12 07:57:31;;;;;;;;;;;;;;;20.30;47.91;102742.84;5118403;27;20011;-39
2022/11/12 07:59:57;;;;;;;;;;;;;;;20.29;47.98;102746.69;5132579;27;20406;-39
2022/11/12 08:02:22;;;;;;;;;;;;;;;20.30;48.20;102747.53;5120820;27;19938;-39
2022/11/12 08:04:48;;;;;;;;;;;;;;;20.29;48.08;102743.94;5127322;27;19927;-40
2022/11/12 08:07:14;;;;;;;;;;;;;;;20.29;48.04;102749.47;5129289;27;19930;-39
2022/11/12 08:09:39;;;;;;;;;;;;;;;20.28;47.06;102750.53;5131153;27;20336;-39
2022/11/12 08:12:05;;;;;;;;;;;;;;;20.30;48.04;102755.84;5130602;27;20002;-39
2022/11/12 08:14:31;;;;;;;;;;;;;;;20.30;47.97;102747.53;5135882;27;19939;-39
2022/11/12 08:16:56;;;;;;;;;;;;;;;20.29;48.22;102755.00;5125887;27;19924;-38
2022/11/12 08:19:22;;;;;;;;;;;;;;;20.29;47.01;102746.69;5127898;27;20427;-38
2022/11/12 08:21:47;;;;;;;;;;;;;;;20.29;47.13;102759.66;5122631;27;19943;-39
2022/11/12 08:24:13;;;;;;;;;;;;;;;20.28;46.88;102752.47;5122510;27;19944;-37
2022/11/12 08:26:38;;;;;;;;;;;;;;;20.29;47.78;102748.59;5128799;27;19955;-40
2022/11/12 08:29:04;;;;;;;;;;;;;;;20.29;47.69;102756.91;5128601;27;19968;-38
2022/11/12 08:31:34;;;;;;;;;;;;;;;20.28;47.63;102758.84;5134713;27;20018;-39
2022/11/12 08:34:10;;;;;;;;;;;;;;;20.28;47.82;102761.59;5130512;27;19924;-38
2022/11/12 08:36:36;;;;;;;;;;;;;;;20.29;47.89;102765.19;5126527;27;19950;-38
2022/11/12 08:39:01;;;;;;;;;;;;;;;20.27;46.90;102768.22;5113920;27;20129;-38
2022/11/12 08:41:27;;;;;;;;;;;;;;;20.28;47.30;102767.13;5136954;27;19928;-39
2022/11/12 08:43:53;;;;;;;;;;;;;;;20.28;47.66;102772.66;5127848;27;20055;-41
2022/11/12 08:46:18;;;;;;;;;;;;;;;20.28;48.14;102769.91;5132216;27;19939;-39
2022/11/12 08:48:44;;;;;;;;;;;;;;;20.29;47.05;102765.19;5130813;27;19930;-39
2022/11/12 08:51:09;;;;;;;;;;;;;;;20.26;47.13;102757.41;5124005;27;19972;-39
2022/11/12 08:53:35;;;;;;;;;;;;;;;20.28;47.83;102760.75;5124929;27;20393;-39
2022/11/12 08:56:00;;;;;;;;;;;;;;;20.28;47.79;102764.38;5129894;27;19930;-39
2022/11/12 08:58:26;;;;;;;;;;;;;;;20.25;46.89;102759.34;5129331;27;19931;-37
2022/11/12 09:00:52;;;;;;;;;;;;;;;20.29;48.21;102759.66;5106144;28;19977;-39
2022/11/12 09:03:19;;;;;;;;;;;;;;;20.26;46.75;102757.41;5117027;27;19976;-37
2022/11/12 09:05:45;;;;;;;;;;;;;;;20.27;48.24;102761.84;5114161;27;19923;-37
2022/11/12 09:08:11;;;;;;;;;;;;;;;20.29;48.11;102759.66;5131070;27;20268;-38
2022/11/12 09:10:37;;;;;;;;;;;;;;;20.28;48.07;102763.53;5122574;27;20303;-37
2022/11/12 09:13:03;;;;;;;;;;;;;;;20.28;47.89;102766.28;5129253;27;19923;-38
2022/11/12 09:15:28;;;;;;;;;;;;;;;20.26;47.15;102760.19;5109840;27;19928;-40
2022/11/12 09:18:04;;;;;;;;;;;;;;;20.27;47.77;102764.63;5107111;28;19950;-37
2022/11/12 09:20:30;;;;;;;;;;;;;;;20.27;47.96;102764.63;5130971;27;19963;-37
2022/11/12 09:22:59;;;;;;;;;;;;;;;20.27;48.09;102767.38;5111600;27;19931;-37
2022/11/12 09:25:25;;;;;;;;;;;;;;;20.27;47.94;102772.91;5101559;27;20326;-38
2022/11/12 09:27:50;;;;;;;;;;;;;;;20.28;47.92;102763.53;5123994;27;20416;-37
2022/11/12 09:30:16;;;;;;;;;;;;;;;20.26;47.98;102755.47;5126335;27;19931;-38
2022/11/12 09:32:41;;;;;;;;;;;;;;;20.28;48.14;102764.38;5126486;27;19931;-38
2022/11/12 09:35:07;;;;;;;;;;;;;;;20.26;46.75;102763.78;5129423;27;20486;-36
2022/11/12 09:37:33;;;;;;;;;;;;;;;20.25;46.38;102747.41;5128734;27;19927;-38
2022/11/12 09:39:58;;;;;;;;;;;;;;;20.26;47.92;102749.13;5127036;27;19931;-38
2022/11/12 09:42:24;;;;;;;;;;;;;;;20.27;47.72;102750.78;5108492;27;20295;-38
2022/11/12 09:44:54;;;;;;;;;;;;;;;20.26;47.82;102758.25;5123406;27;19980;-39
2022/11/12 09:47:29;;;;;;;;;;;;;;;20.27;47.85;102761.84;5122714;27;19970;-39
2022/11/12 09:50:14;;;;;;;;;;;;;;;20.26;48.07;102761.00;5127204;27;19971;-38
2022/11/12 09:52:41;;;;;;;;;;;;;;;20.26;48.06;102766.56;5113952;27;20014;-38
2022/11/12 09:55:12;;;;;;;;;;;;;;;20.27;48.09;102772.91;5124682;27;20366;-37
2022/11/12 09:57:37;;;;;;;;;;;;;;;20.25;47.01;102775.94;5112360;27;19996;-37
2022/11/12 10:00:09;;;;;;;;;;;;;;;20.22;46.60;102767.28;5126362;27;20443;-38
2022/11/12 10:02:37;;;;;;;;;;;;;;;20.25;46.70;102770.41;5122950;27;19972;-38
2022/11/12 10:05:23;;;;;;;;;;;;;;;20.26;47.52;102771.25;5124791;27;19973;-39
2022/11/12 10:07:53;;;;;;;;;;;;;;;20.27;47.97;102753.56;5109552;27;19934;-38
2022/11/12 10:10:38;;;;;;;;;;;;;;;20.26;47.13;102749.94;5122689;27;19966;-38
2022/11/12 10:16:44;;;;;;;;;;;;;;;20.26;47.07;102749.13;5166528;27;19925;-38
2022/11/12 10:19:08;;;;;;;;;;;;;;;20.25;47.91;102747.41;5135136;27;20399;-39
2022/11/12 10:21:50;;;;;;;;;;;;;;;20.25;46.81;102741.88;5140710;27;20390;-37
2022/11/12 10:24:18;;;;;;;;;;;;;;;20.26;47.89;102746.34;5146636;27;19985;-39
2022/11/12 10:26:44;;;;;;;;;;;;;;;20.24;47.86;102737.44;5128879;27;20036;-38
2022/11/12 10:31:44;;;;;;;;;;;;;;;20.25;47.09;102744.63;5172547;27;19929;-37
2022/11/12 10:34:15;;;;;;;;;;;;;;;20.26;48.09;102738.03;5168330;27;19927;-37
2022/11/12 10:36:45;;;;;;;;;;;;;;;20.25;47.56;102736.34;5172180;27;19964;-39
2022/11/12 10:39:29;;;;;;;;;;;;;;;20.26;47.84;102738.88;5156252;27;20420;-37
2022/11/12 10:42:00;;;;;;;;;;;;;;;20.25;47.10;102739.09;5153411;27;20445;-37
2022/11/12 10:44:26;;;;;;;;;;;;;;;20.25;47.50;102723.38;5170726;27;19963;-39
2022/11/12 10:46:52;;;;;;;;;;;;;;;20.24;47.01;102718.91;5169590;27;19926;-37
2022/11/12 10:49:21;;;;;;;;;;;;;;;20.24;46.48;102716.13;5152551;27;20055;-38
2022/11/12 10:51:55;;;;;;;;;;;;;;;20.23;46.47;102711.69;5177756;27;20162;-38
2022/11/12 10:54:36;;;;;;;;;;;;;;;20.23;47.16;102706.16;5171286;27;19969;-37
2022/11/12 10:57:18;;;;;;;;;;;;;;;20.23;47.45;102703.41;5170243;27;20290;-36
2022/11/12 10:59:43;;;;;;;;;;;;;;;20.23;46.67;102702.56;5151592;27;19984;-37
2022/11/12 11:02:16;;;;;;;;;;;;;;;20.24;47.46;102701.47;5166749;27;19924;-38
2022/11/12 11:04:42;;;;;;;;;;;;;;;20.22;46.35;102695.34;5131428;27;19932;-37
2022/11/12 11:07:23;;;;;;;;;;;;;;;20.24;48.02;102699.53;5137245;27;20052;-39
2022/11/12 11:09:53;;;;;;;;;;;;;;;20.24;47.68;102694.00;5138626;27;19959;-37
2022/11/12 11:12:27;;;;;;;;;;;;;;;20.22;46.88;102692.59;5140271;27;19931;-38
2022/11/12 11:15:12;;;;;;;;;;;;;;;20.23;47.85;102697.88;5151218;27;19959;-37
2022/11/12 11:17:38;;;;;;;;;;;;;;;20.23;47.03;102697.03;5142044;27;19962;-38
2022/11/12 11:20:04;;;;;;;;;;;;;;;20.22;46.39;102692.59;5150328;27;19927;-37
2022/11/12 11:22:45;;;;;;;;;;;;;;;20.24;47.75;102695.94;5156112;27;19958;-37
2022/11/12 11:25:14;;;;;;;;;;;;;;;20.23;46.74;102688.72;5153853;27;20409;-37
2022/11/12 11:27:41;;;;;;;;;;;;;;;20.23;46.63;102688.72;5154313;27;20362;-40
2022/11/12 11:30:10;;;;;;;;;;;;;;;20.21;46.92;102683.44;5152592;27;19935;-38
2022/11/12 11:32:41;;;;;;;;;;;;;;;20.23;47.33;102686.81;5161502;27;19963;-39
2022/11/12 11:35:27;;;;;;;;;;;;;;;20.23;47.41;102688.72;5155379;27;20366;-39
2022/11/12 11:38:13;;;;;;;;;;;;;;;20.21;46.85;102683.44;5139304;27;20380;-38
2022/11/12 11:40:42;;;;;;;;;;;;;;;20.22;47.18;102692.59;5138062;27;20026;-37
2022/11/12 11:43:26;;;;;;;;;;;;;;;20.23;47.71;102689.56;5143535;27;20466;-37
2022/11/12 11:46:02;;;;;;;;;;;;;;;20.22;46.18;102673.22;5139637;27;20359;-39
2022/11/12 11:48:31;;;;;;;;;;;;;;;20.21;46.56;102680.69;5136089;27;19953;-38
2022/11/12 11:50:59;;;;;;;;;;;;;;;20.21;47.51;102677.09;5121980;27;20033;-38
2022/11/12 11:53:28;;;;;;;;;;;;;;;20.19;46.15;102671.78;5136529;27;20382;-38
2022/11/12 11:55:56;;;;;;;;;;;;;;;20.20;46.82;102665.16;5137354;27;20020;-39
2022/11/12 11:58:43;;;;;;;;;;;;;;;20.21;47.11;102671.53;5120923;27;19958;-39
2022/11/12 12:01:12;;;;;;;;;;;;;;;20.20;46.41;102662.38;5136401;27;19957;-38
2022/11/12 12:03:57;;;;;;;;;;;;;;;20.22;47.97;102659.38;5136460;27;19966;-37
2022/11/12 12:06:23;;;;;;;;;;;;;;;20.21;46.61;102668.78;5124753;27;20250;-38
2022/11/12 12:09:09;;;;;;;;;;;;;;;20.20;46.92;102659.63;5143955;27;20389;-38
2022/11/12 12:11:41;;;;;;;;;;;;;;;20.21;46.66;102663.25;5124633;27;19959;-39
2022/11/12 12:14:27;;;;;;;;;;;;;;;20.21;46.46;102654.94;5144757;27;19984;-38
2022/11/12 12:16:59;;;;;;;;;;;;;;;20.21;47.35;102658.56;5128332;27;20388;-37
2022/11/12 12:19:45;;;;;;;;;;;;;;;20.21;46.99;102649.41;5143948;27;19961;-38
2022/11/12 12:22:12;;;;;;;;;;;;;;;20.21;46.59;102657.72;5124015;27;19984;-38
2022/11/12 12:24:43;;;;;;;;;;;;;;;20.21;47.87;102658.56;5139346;27;19971;-39
2022/11/12 12:27:10;;;;;;;;;;;;;;;20.21;47.28;102657.72;5137629;27;20377;-38
2022/11/12 12:29:38;;;;;;;;;;;;;;;20.21;46.19;102653.03;5126694;27;19958;-38
2022/11/12 12:32:21;;;;;;;;;;;;;;;20.21;47.80;102641.97;5125155;27;20379;-35
2022/11/12 12:34:53;;;;;;;;;;;;;;;20.21;47.05;102635.59;5143247;27;19938;-38
2022/11/12 12:37:23;;;;;;;;;;;;;;;20.20;46.52;102637.50;5124037;27;20433;-37
2022/11/12 12:40:08;;;;;;;;;;;;;;;20.21;46.78;102632.81;5120055;27;19977;-37
2022/11/12 12:42:37;;;;;;;;;;;;;;;20.20;46.64;102628.34;5141318;27;19981;-37
2022/11/12 12:45:22;;;;;;;;;;;;;;;20.21;46.24;102632.81;5121132;27;20000;-37
2022/11/12 12:47:48;;;;;;;;;;;;;;;20.23;46.74;102630.63;5126226;27;20734;-38
2022/11/12 12:50:14;;;;;;;;;;;;;;;20.20;47.16;102618.13;5140549;27;20123;-38
2022/11/12 12:52:57;;;;;;;;;;;;;;;20.20;47.34;102618.13;5137110;27;19928;-38
2022/11/12 12:55:39;;;;;;;;;;;;;;;20.20;47.04;102626.41;5122835;27;19931;-39
2022/11/12 12:58:09;;;;;;;;;;;;;;;20.21;47.77;102625.34;5124501;27;19975;-39
2022/11/12 13:00:36;;;;;;;;;;;;;;;20.20;46.50;102626.41;5134588;27;19980;-39
2022/11/12 13:03:02;;;;;;;;;;;;;;;20.20;46.40;102625.59;5139358;27;20391;-38
2022/11/12 13:05:28;;;;;;;;;;;;;;;20.19;46.02;102629.44;5117095;27;20378;-38
2022/11/12 13:07:55;;;;;;;;;;;;;;;20.20;47.25;102631.13;5123843;27;19954;-37
2022/11/12 13:10:41;;;;;;;;;;;;;;;20.21;47.56;102636.41;5115638;27;20383;-38
2022/11/12 13:13:23;;;;;;;;;;;;;;;20.19;46.44;102634.97;5144175;27;19961;-39